sensor_id;sensor_type;location;lat;lon;timestamp;temperature;humidity
4811;DHT22;2419;51.276;6.472;2023-04-07T00:02:13;8.30;99.90
4811;DHT22;2419;51.276;6.472;2023-04-07T00:04:42;8.30;99.90
4811;DHT22;2419;51.276;6.472;2023-04-07T00:07:10;8.40;99.90
4811;DHT22;2419;51.276;6.472;2023-04-07T00:09:38;8.30;99.90
4811;DHT22;2419;51.276;6.472;2023-04-07T00:12:06;8.40;99.90
4811;DHT22;2419;51.276;6.472;2023-04-07T00:14:34;8.40;99.90
4811;DHT22;2419;51.276;6.472;2023-04-07T00:17:04;8.50;99.90
4811;DHT22;2419;51.276;6.472;2023-04-07T00:19:32;8.50;99.90
4811;DHT22;2419;51.276;6.472;2023-04-07T00:22:01;8.50;99.90
4811;DHT22;2419;51.276;6.472;2023-04-07T00:24:29;8.50;99.90
4811;DHT22;2419;51.276;6.472;2023-04-07T00:27:00;8.60;99.90
4811;DHT22;2419;51.276;6.472;2023-04-07T00:29:29;8.60;99.90
4811;DHT22;2419;51.276;6.472;2023-04-07T00:31:57;8.60;99.90
4811;DHT22;2419;51.276;6.472;2023-04-07T00:34:27;8.70;99.90
4811;DHT22;2419;51.276;6.472;2023-04-07T00:36:55;8.60;99.90
4811;DHT22;2419;51.276;6.472;2023-04-07T00:39:23;8.70;99.90
4811;DHT22;2419;51.276;6.472;2023-04-07T00:41:53;8.70;99.90
4811;DHT22;2419;51.276;6.472;2023-04-07T00:44:22;8.70;99.90
4811;DHT22;2419;51.276;6.472;2023-04-07T00:46:50;8.80;99.90
4811;DHT22;2419;51.276;6.472;2023-04-07T00:49:18;8.70;99.90
4811;DHT22;2419;51.276;6.472;2023-04-07T00:51:49;8.80;99.90
4811;DHT22;2419;51.276;6.472;2023-04-07T00:54:17;8.80;99.90
4811;DHT22;2419;51.276;6.472;2023-04-07T00:56:45;8.70;99.90
4811;DHT22;2419;51.276;6.472;2023-04-07T00:59:13;8.80;99.90
4811;DHT22;2419;51.276;6.472;2023-04-07T01:01:44;8.70;99.90
4811;DHT22;2419;51.276;6.472;2023-04-07T01:04:21;8.80;99.90
4811;DHT22;2419;51.276;6.472;2023-04-07T01:09:36;8.70;99.90
4811;DHT22;2419;51.276;6.472;2023-04-07T01:12:09;8.70;99.90
4811;DHT22;2419;51.276;6.472;2023-04-07T01:14:44;8.70;99.90
4811;DHT22;2419;51.276;6.472;2023-04-07T01:17:32;8.70;99.90
4811;DHT22;2419;51.276;6.472;2023-04-07T01:20:02;8.70;99.90
4811;DHT22;2419;51.276;6.472;2023-04-07T01:22:41;8.70;99.90
4811;DHT22;2419;51.276;6.472;2023-04-07T01:25:37;8.70;99.90
4811;DHT22;2419;51.276;6.472;2023-04-07T01:28:21;8.70;99.90
4811;DHT22;2419;51.276;6.472;2023-04-07T01:30:57;8.60;99.90
4811;DHT22;2419;51.276;6.472;2023-04-07T01:33:28;8.70;99.90
4811;DHT22;2419;51.276;6.472;2023-04-07T01:35:58;8.70;99.90
4811;DHT22;2419;51.276;6.472;2023-04-07T01:38:28;8.60;99.90
4811;DHT22;2419;51.276;6.472;2023-04-07T01:40:57;8.70;99.90
4811;DHT22;2419;51.276;6.472;2023-04-07T01:43:26;8.70;99.90
4811;DHT22;2419;51.276;6.472;2023-04-07T01:45:57;8.70;99.90
4811;DHT22;2419;51.276;6.472;2023-04-07T01:48:26;8.70;99.90
4811;DHT22;2419;51.276;6.472;2023-04-07T01:50:55;8.70;99.90
4811;DHT22;2419;51.276;6.472;2023-04-07T01:53:23;8.70;99.90
4811;DHT22;2419;51.276;6.472;2023-04-07T01:55:53;8.70;99.90
4811;DHT22;2419;51.276;6.472;2023-04-07T01:58:21;8.70;99.90
4811;DHT22;2419;51.276;6.472;2023-04-07T02:00:49;8.70;99.90
4811;DHT22;2419;51.276;6.472;2023-04-07T02:03:28;8.70;99.90
4811;DHT22;2419;51.276;6.472;2023-04-07T02:06:03;8.60;99.90
4811;DHT22;2419;51.276;6.472;2023-04-07T02:08:38;8.70;99.90
4811;DHT22;2419;51.276;6.472;2023-04-07T02:11:10;8.60;99.90
4811;DHT22;2419;51.276;6.472;2023-04-07T02:13:40;8.70;99.90
4811;DHT22;2419;51.276;6.472;2023-04-07T02:16:11;8.70;99.90
4811;DHT22;2419;51.276;6.472;2023-04-07T02:18:42;8.70;99.90
4811;DHT22;2419;51.276;6.472;2023-04-07T02:21:14;8.70;99.90
4811;DHT22;2419;51.276;6.472;2023-04-07T02:23:44;8.70;99.90
4811;DHT22;2419;51.276;6.472;2023-04-07T02:26:13;8.70;99.90
4811;DHT22;2419;51.276;6.472;2023-04-07T02:28:41;8.70;99.90
4811;DHT22;2419;51.276;6.472;2023-04-07T02:31:09;8.70;99.90
4811;DHT22;2419;51.276;6.472;2023-04-07T02:33:39;8.70;99.90
4811;DHT22;2419;51.276;6.472;2023-04-07T02:36:08;8.60;99.90
4811;DHT22;2419;51.276;6.472;2023-04-07T02:38:36;8.60;99.90
4811;DHT22;2419;51.276;6.472;2023-04-07T02:41:04;8.60;99.90
4811;DHT22;2419;51.276;6.472;2023-04-07T02:43:33;8.60;99.90
4811;DHT22;2419;51.276;6.472;2023-04-07T02:46:01;8.60;99.90
4811;DHT22;2419;51.276;6.472;2023-04-07T02:48:29;8.50;99.90
4811;DHT22;2419;51.276;6.472;2023-04-07T02:50:57;8.50;99.90
4811;DHT22;2419;51.276;6.472;2023-04-07T02:53:27;8.50;99.90
4811;DHT22;2419;51.276;6.472;2023-04-07T02:55:55;8.50;99.90
4811;DHT22;2419;51.276;6.472;2023-04-07T02:58:23;8.50;99.90
4811;DHT22;2419;51.276;6.472;2023-04-07T03:00:51;8.50;99.90
4811;DHT22;2419;51.276;6.472;2023-04-07T03:03:22;8.50;99.90
4811;DHT22;2419;51.276;6.472;2023-04-07T03:06:08;8.50;99.90
4811;DHT22;2419;51.276;6.472;2023-04-07T03:08:47;8.40;99.90
4811;DHT22;2419;51.276;6.472;2023-04-07T03:11:15;8.50;99.90
4811;DHT22;2419;51.276;6.472;2023-04-07T03:13:43;8.40;99.90
4811;DHT22;2419;51.276;6.472;2023-04-07T03:16:13;8.40;99.90
4811;DHT22;2419;51.276;6.472;2023-04-07T03:18:55;8.40;99.90
4811;DHT22;2419;51.276;6.472;2023-04-07T03:21:23;8.40;99.90
4811;DHT22;2419;51.276;6.472;2023-04-07T03:23:52;8.40;99.90
4811;DHT22;2419;51.276;6.472;2023-04-07T03:26:21;8.40;99.90
4811;DHT22;2419;51.276;6.472;2023-04-07T03:28:50;8.40;99.90
4811;DHT22;2419;51.276;6.472;2023-04-07T03:31:19;8.40;99.90
4811;DHT22;2419;51.276;6.472;2023-04-07T03:33:49;8.40;99.90
4811;DHT22;2419;51.276;6.472;2023-04-07T03:36:19;8.40;99.90
4811;DHT22;2419;51.276;6.472;2023-04-07T03:38:47;8.40;99.90
4811;DHT22;2419;51.276;6.472;2023-04-07T03:41:18;8.40;99.90
4811;DHT22;2419;51.276;6.472;2023-04-07T03:43:46;8.30;99.90
4811;DHT22;2419;51.276;6.472;2023-04-07T03:46:14;8.30;99.90
4811;DHT22;2419;51.276;6.472;2023-04-07T03:48:43;8.30;99.90
4811;DHT22;2419;51.276;6.472;2023-04-07T03:51:11;8.30;99.90
4811;DHT22;2419;51.276;6.472;2023-04-07T03:53:39;8.30;99.90
4811;DHT22;2419;51.276;6.472;2023-04-07T03:56:26;8.20;99.90
4811;DHT22;2419;51.276;6.472;2023-04-07T03:58:57;8.20;99.90
4811;DHT22;2419;51.276;6.472;2023-04-07T04:01:32;8.10;99.90
4811;DHT22;2419;51.276;6.472;2023-04-07T04:04:06;8.20;99.90
4811;DHT22;2419;51.276;6.472;2023-04-07T04:06:35;8.20;99.90
4811;DHT22;2419;51.276;6.472;2023-04-07T04:09:11;8.20;99.90
4811;DHT22;2419;51.276;6.472;2023-04-07T04:11:45;8.20;99.90
4811;DHT22;2419;51.276;6.472;2023-04-07T04:14:14;8.20;99.90
4811;DHT22;2419;51.276;6.472;2023-04-07T04:16:49;8.20;99.90
4811;DHT22;2419;51.276;6.472;2023-04-07T04:19:33;8.20;99.90
4811;DHT22;2419;51.276;6.472;2023-04-07T04:22:10;8.20;99.90
4811;DHT22;2419;51.276;6.472;2023-04-07T04:24:47;8.30;99.90
4811;DHT22;2419;51.276;6.472;2023-04-07T04:27:16;8.20;99.90
4811;DHT22;2419;51.276;6.472;2023-04-07T04:29:50;8.20;99.90
4811;DHT22;2419;51.276;6.472;2023-04-07T04:32:24;8.20;99.90
4811;DHT22;2419;51.276;6.472;2023-04-07T04:34:53;8.10;99.90
4811;DHT22;2419;51.276;6.472;2023-04-07T04:37:21;8.10;99.90
4811;DHT22;2419;51.276;6.472;2023-04-07T04:39:49;8.10;99.90
4811;DHT22;2419;51.276;6.472;2023-04-07T04:42:22;8.10;99.90
4811;DHT22;2419;51.276;6.472;2023-04-07T04:44:53;8.10;99.90
4811;DHT22;2419;51.276;6.472;2023-04-07T04:47:21;8.10;99.90
4811;DHT22;2419;51.276;6.472;2023-04-07T04:49:50;8.10;99.90
4811;DHT22;2419;51.276;6.472;2023-04-07T04:52:19;8.10;99.90
4811;DHT22;2419;51.276;6.472;2023-04-07T04:54:49;8.10;99.90
4811;DHT22;2419;51.276;6.472;2023-04-07T04:57:18;8.10;99.90
4811;DHT22;2419;51.276;6.472;2023-04-07T04:59:48;8.10;99.90
4811;DHT22;2419;51.276;6.472;2023-04-07T05:02:16;8.10;99.90
4811;DHT22;2419;51.276;6.472;2023-04-07T05:04:44;8.00;99.90
4811;DHT22;2419;51.276;6.472;2023-04-07T05:07:23;8.00;99.90
4811;DHT22;2419;51.276;6.472;2023-04-07T05:09:51;8.10;99.90
4811;DHT22;2419;51.276;6.472;2023-04-07T05:12:20;8.00;99.90
4811;DHT22;2419;51.276;6.472;2023-04-07T05:14:56;8.00;99.90
4811;DHT22;2419;51.276;6.472;2023-04-07T05:17:25;8.00;99.90
4811;DHT22;2419;51.276;6.472;2023-04-07T05:19:53;8.00;99.90
4811;DHT22;2419;51.276;6.472;2023-04-07T05:22:32;8.00;99.90
4811;DHT22;2419;51.276;6.472;2023-04-07T05:25:00;8.00;99.90
4811;DHT22;2419;51.276;6.472;2023-04-07T05:27:28;8.00;99.90
4811;DHT22;2419;51.276;6.472;2023-04-07T05:30:03;8.00;99.90
4811;DHT22;2419;51.276;6.472;2023-04-07T05:32:33;8.00;99.90
4811;DHT22;2419;51.276;6.472;2023-04-07T05:35:08;8.00;99.90
4811;DHT22;2419;51.276;6.472;2023-04-07T05:37:42;8.00;99.90
4811;DHT22;2419;51.276;6.472;2023-04-07T05:40:11;8.00;99.90
4811;DHT22;2419;51.276;6.472;2023-04-07T05:42:39;8.00;99.90
4811;DHT22;2419;51.276;6.472;2023-04-07T05:45:10;8.00;99.90
4811;DHT22;2419;51.276;6.472;2023-04-07T05:47:41;8.00;99.90
4811;DHT22;2419;51.276;6.472;2023-04-07T05:50:10;8.10;99.90
4811;DHT22;2419;51.276;6.472;2023-04-07T05:52:41;8.10;99.90
4811;DHT22;2419;51.276;6.472;2023-04-07T05:55:20;8.10;99.90
4811;DHT22;2419;51.276;6.472;2023-04-07T05:57:49;8.10;99.90
4811;DHT22;2419;51.276;6.472;2023-04-07T06:00:21;8.20;99.90
4811;DHT22;2419;51.276;6.472;2023-04-07T06:02:59;8.10;99.90
4811;DHT22;2419;51.276;6.472;2023-04-07T06:05:32;8.20;99.90
4811;DHT22;2419;51.276;6.472;2023-04-07T06:08:01;8.20;99.90
4811;DHT22;2419;51.276;6.472;2023-04-07T06:10:29;8.10;99.90
4811;DHT22;2419;51.276;6.472;2023-04-07T06:12:57;8.20;99.90
4811;DHT22;2419;51.276;6.472;2023-04-07T06:15:27;8.20;99.90
4811;DHT22;2419;51.276;6.472;2023-04-07T06:17:55;8.30;99.90
4811;DHT22;2419;51.276;6.472;2023-04-07T06:20:23;8.20;99.90
4811;DHT22;2419;51.276;6.472;2023-04-07T06:22:53;8.20;99.90
4811;DHT22;2419;51.276;6.472;2023-04-07T06:25:21;8.30;99.90
4811;DHT22;2419;51.276;6.472;2023-04-07T06:27:49;8.30;99.90
4811;DHT22;2419;51.276;6.472;2023-04-07T06:30:17;8.30;99.90
4811;DHT22;2419;51.276;6.472;2023-04-07T06:32:47;8.20;99.90
4811;DHT22;2419;51.276;6.472;2023-04-07T06:35:15;8.20;99.90
4811;DHT22;2419;51.276;6.472;2023-04-07T06:37:43;8.30;99.90
4811;DHT22;2419;51.276;6.472;2023-04-07T06:40:11;8.30;99.90
4811;DHT22;2419;51.276;6.472;2023-04-07T06:42:39;8.40;99.90
4811;DHT22;2419;51.276;6.472;2023-04-07T06:45:21;8.40;99.90
4811;DHT22;2419;51.276;6.472;2023-04-07T06:47:51;8.40;99.90
4811;DHT22;2419;51.276;6.472;2023-04-07T06:50:19;8.40;99.90
4811;DHT22;2419;51.276;6.472;2023-04-07T06:52:48;8.50;99.90
4811;DHT22;2419;51.276;6.472;2023-04-07T06:55:16;8.40;99.90
4811;DHT22;2419;51.276;6.472;2023-04-07T06:57:44;8.40;99.90
4811;DHT22;2419;51.276;6.472;2023-04-07T07:00:12;8.50;99.90
4811;DHT22;2419;51.276;6.472;2023-04-07T07:02:40;8.60;99.90
4811;DHT22;2419;51.276;6.472;2023-04-07T07:05:10;8.70;99.90
4811;DHT22;2419;51.276;6.472;2023-04-07T07:07:38;8.70;99.90
4811;DHT22;2419;51.276;6.472;2023-04-07T07:10:08;8.80;99.90
4811;DHT22;2419;51.276;6.472;2023-04-07T07:12:36;8.90;99.90
4811;DHT22;2419;51.276;6.472;2023-04-07T07:15:05;8.90;99.90
4811;DHT22;2419;51.276;6.472;2023-04-07T07:17:33;8.90;99.90
4811;DHT22;2419;51.276;6.472;2023-04-07T07:20:02;9.00;99.90
4811;DHT22;2419;51.276;6.472;2023-04-07T07:22:31;9.10;99.90
4811;DHT22;2419;51.276;6.472;2023-04-07T07:24:59;9.10;99.90
4811;DHT22;2419;51.276;6.472;2023-04-07T07:27:27;9.10;99.90
4811;DHT22;2419;51.276;6.472;2023-04-07T07:29:55;9.00;99.90
4811;DHT22;2419;51.276;6.472;2023-04-07T07:32:23;8.90;99.90
4811;DHT22;2419;51.276;6.472;2023-04-07T07:34:51;8.90;99.90
4811;DHT22;2419;51.276;6.472;2023-04-07T07:37:19;9.00;99.90
4811;DHT22;2419;51.276;6.472;2023-04-07T07:39:48;9.00;99.90
4811;DHT22;2419;51.276;6.472;2023-04-07T07:42:17;9.10;99.90
4811;DHT22;2419;51.276;6.472;2023-04-07T07:44:45;9.10;99.90
4811;DHT22;2419;51.276;6.472;2023-04-07T07:47:13;9.20;99.90
4811;DHT22;2419;51.276;6.472;2023-04-07T07:49:41;9.20;99.90
4811;DHT22;2419;51.276;6.472;2023-04-07T07:52:09;9.20;99.90
4811;DHT22;2419;51.276;6.472;2023-04-07T07:54:37;9.30;99.90
4811;DHT22;2419;51.276;6.472;2023-04-07T07:57:06;9.20;99.90
4811;DHT22;2419;51.276;6.472;2023-04-07T07:59:34;9.20;99.90
4811;DHT22;2419;51.276;6.472;2023-04-07T08:02:03;9.30;99.90
4811;DHT22;2419;51.276;6.472;2023-04-07T08:04:31;9.30;99.90
4811;DHT22;2419;51.276;6.472;2023-04-07T08:06:59;9.40;99.90
4811;DHT22;2419;51.276;6.472;2023-04-07T08:09:28;9.50;99.90
4811;DHT22;2419;51.276;6.472;2023-04-07T08:11:57;9.40;99.90
4811;DHT22;2419;51.276;6.472;2023-04-07T08:14:27;9.40;99.90
4811;DHT22;2419;51.276;6.472;2023-04-07T08:16:55;9.40;99.90
4811;DHT22;2419;51.276;6.472;2023-04-07T08:19:23;9.40;99.90
4811;DHT22;2419;51.276;6.472;2023-04-07T08:21:51;9.40;99.90
4811;DHT22;2419;51.276;6.472;2023-04-07T08:24:19;9.30;99.90
4811;DHT22;2419;51.276;6.472;2023-04-07T08:26:47;9.10;99.90
4811;DHT22;2419;51.276;6.472;2023-04-07T08:29:15;9.10;99.90
4811;DHT22;2419;51.276;6.472;2023-04-07T08:31:44;9.10;99.90
4811;DHT22;2419;51.276;6.472;2023-04-07T08:34:12;9.10;99.90
4811;DHT22;2419;51.276;6.472;2023-04-07T08:36:40;9.00;99.90
4811;DHT22;2419;51.276;6.472;2023-04-07T08:39:09;9.10;99.90
4811;DHT22;2419;51.276;6.472;2023-04-07T08:41:38;9.00;99.90
4811;DHT22;2419;51.276;6.472;2023-04-07T08:44:07;9.00;99.90
4811;DHT22;2419;51.276;6.472;2023-04-07T08:46:37;9.00;99.90
4811;DHT22;2419;51.276;6.472;2023-04-07T08:49:09;9.10;99.90
4811;DHT22;2419;51.276;6.472;2023-04-07T08:51:44;9.30;99.90
4811;DHT22;2419;51.276;6.472;2023-04-07T08:54:15;9.30;99.90
4811;DHT22;2419;51.276;6.472;2023-04-07T08:56:44;9.30;99.90
4811;DHT22;2419;51.276;6.472;2023-04-07T08:59:13;9.30;99.90
4811;DHT22;2419;51.276;6.472;2023-04-07T09:01:44;9.30;99.90
4811;DHT22;2419;51.276;6.472;2023-04-07T09:04:14;9.30;99.90
4811;DHT22;2419;51.276;6.472;2023-04-07T09:06:43;9.30;99.90
4811;DHT22;2419;51.276;6.472;2023-04-07T09:09:11;9.30;99.90
4811;DHT22;2419;51.276;6.472;2023-04-07T09:11:41;9.30;99.90
4811;DHT22;2419;51.276;6.472;2023-04-07T09:14:09;9.50;99.90
4811;DHT22;2419;51.276;6.472;2023-04-07T09:16:37;9.50;99.90
4811;DHT22;2419;51.276;6.472;2023-04-07T09:19:05;9.60;99.90
4811;DHT22;2419;51.276;6.472;2023-04-07T09:21:48;9.50;99.90
4811;DHT22;2419;51.276;6.472;2023-04-07T09:24:20;9.60;99.90
4811;DHT22;2419;51.276;6.472;2023-04-07T09:26:49;9.70;99.90
4811;DHT22;2419;51.276;6.472;2023-04-07T09:29:18;9.70;99.90
4811;DHT22;2419;51.276;6.472;2023-04-07T09:31:48;9.80;99.90
4811;DHT22;2419;51.276;6.472;2023-04-07T09:34:25;9.70;99.90
4811;DHT22;2419;51.276;6.472;2023-04-07T09:36:55;9.90;99.90
4811;DHT22;2419;51.276;6.472;2023-04-07T09:39:24;9.90;99.90
4811;DHT22;2419;51.276;6.472;2023-04-07T09:41:52;10.00;99.90
4811;DHT22;2419;51.276;6.472;2023-04-07T09:44:21;9.80;99.90
4811;DHT22;2419;51.276;6.472;2023-04-07T09:46:50;9.80;99.90
4811;DHT22;2419;51.276;6.472;2023-04-07T09:49:19;9.70;99.90
4811;DHT22;2419;51.276;6.472;2023-04-07T09:51:57;9.60;99.90
4811;DHT22;2419;51.276;6.472;2023-04-07T09:54:32;9.50;99.90
4811;DHT22;2419;51.276;6.472;2023-04-07T09:57:02;9.50;99.90
4811;DHT22;2419;51.276;6.472;2023-04-07T09:59:31;9.40;99.90
4811;DHT22;2419;51.276;6.472;2023-04-07T10:02:00;9.30;99.90
4811;DHT22;2419;51.276;6.472;2023-04-07T10:04:28;9.50;99.90
4811;DHT22;2419;51.276;6.472;2023-04-07T10:06:58;9.50;99.90
4811;DHT22;2419;51.276;6.472;2023-04-07T10:09:27;9.50;99.90
4811;DHT22;2419;51.276;6.472;2023-04-07T10:11:56;9.60;99.90
4811;DHT22;2419;51.276;6.472;2023-04-07T10:14:27;9.70;99.90
4811;DHT22;2419;51.276;6.472;2023-04-07T10:16:59;9.70;99.90
4811;DHT22;2419;51.276;6.472;2023-04-07T10:19:29;9.80;99.90
4811;DHT22;2419;51.276;6.472;2023-04-07T10:22:01;10.20;99.90
4811;DHT22;2419;51.276;6.472;2023-04-07T10:24:39;10.40;99.90
4811;DHT22;2419;51.276;6.472;2023-04-07T10:27:12;10.50;99.90
4811;DHT22;2419;51.276;6.472;2023-04-07T10:29:43;10.20;99.90
4811;DHT22;2419;51.276;6.472;2023-04-07T10:32:13;10.20;99.90
4811;DHT22;2419;51.276;6.472;2023-04-07T10:35:02;10.10;99.90
4811;DHT22;2419;51.276;6.472;2023-04-07T10:37:32;10.10;99.90
4811;DHT22;2419;51.276;6.472;2023-04-07T10:40:28;10.20;99.90
4811;DHT22;2419;51.276;6.472;2023-04-07T10:42:56;10.20;99.90
4811;DHT22;2419;51.276;6.472;2023-04-07T10:45:56;10.30;99.90
4811;DHT22;2419;51.276;6.472;2023-04-07T10:48:26;10.40;99.90
4811;DHT22;2419;51.276;6.472;2023-04-07T10:51:15;10.40;99.90
4811;DHT22;2419;51.276;6.472;2023-04-07T11:00:15;10.30;99.90
4811;DHT22;2419;51.276;6.472;2023-04-07T11:02:44;10.40;99.90
4811;DHT22;2419;51.276;6.472;2023-04-07T11:05:20;10.40;99.90
4811;DHT22;2419;51.276;6.472;2023-04-07T11:07:51;10.40;99.90
4811;DHT22;2419;51.276;6.472;2023-04-07T11:10:20;10.40;99.90
4811;DHT22;2419;51.276;6.472;2023-04-07T11:12:59;10.40;99.90
4811;DHT22;2419;51.276;6.472;2023-04-07T11:15:29;10.60;99.90
4811;DHT22;2419;51.276;6.472;2023-04-07T11:18:15;10.70;99.90
4811;DHT22;2419;51.276;6.472;2023-04-07T11:20:49;10.90;99.90
4811;DHT22;2419;51.276;6.472;2023-04-07T11:23:19;11.00;99.90
4811;DHT22;2419;51.276;6.472;2023-04-07T11:25:49;11.10;99.90
4811;DHT22;2419;51.276;6.472;2023-04-07T11:28:18;11.20;99.90
4811;DHT22;2419;51.276;6.472;2023-04-07T11:36:51;11.20;99.90
4811;DHT22;2419;51.276;6.472;2023-04-07T11:42:31;11.00;99.90
4811;DHT22;2419;51.276;6.472;2023-04-07T11:44:59;11.00;99.90
4811;DHT22;2419;51.276;6.472;2023-04-07T11:47:44;10.90;99.90
4811;DHT22;2419;51.276;6.472;2023-04-07T11:50:44;11.00;99.90
4811;DHT22;2419;51.276;6.472;2023-04-07T11:53:24;10.90;99.90
4811;DHT22;2419;51.276;6.472;2023-04-07T11:56:02;11.00;99.90
4811;DHT22;2419;51.276;6.472;2023-04-07T11:58:30;11.00;99.90
4811;DHT22;2419;51.276;6.472;2023-04-07T12:00:59;10.90;99.90
4811;DHT22;2419;51.276;6.472;2023-04-07T12:03:31;10.80;99.90
4811;DHT22;2419;51.276;6.472;2023-04-07T12:10:25;10.90;99.90
4811;DHT22;2419;51.276;6.472;2023-04-07T12:13:12;11.00;99.90
4811;DHT22;2419;51.276;6.472;2023-04-07T12:15:40;11.30;99.90
4811;DHT22;2419;51.276;6.472;2023-04-07T12:18:14;11.30;99.90
4811;DHT22;2419;51.276;6.472;2023-04-07T12:20:43;11.40;99.90
4811;DHT22;2419;51.276;6.472;2023-04-07T12:29:18;11.40;99.90
4811;DHT22;2419;51.276;6.472;2023-04-07T12:31:46;11.60;99.90
4811;DHT22;2419;51.276;6.472;2023-04-07T12:34:17;11.60;99.90
4811;DHT22;2419;51.276;6.472;2023-04-07T12:36:45;11.70;99.90
4811;DHT22;2419;51.276;6.472;2023-04-07T12:39:14;11.70;99.90
4811;DHT22;2419;51.276;6.472;2023-04-07T12:41:42;11.60;99.90
4811;DHT22;2419;51.276;6.472;2023-04-07T12:44:11;11.60;99.90
4811;DHT22;2419;51.276;6.472;2023-04-07T12:46:40;11.50;99.90
4811;DHT22;2419;51.276;6.472;2023-04-07T12:49:09;11.50;99.90
4811;DHT22;2419;51.276;6.472;2023-04-07T12:51:36;11.20;99.90
4811;DHT22;2419;51.276;6.472;2023-04-07T12:54:06;11.20;99.90
4811;DHT22;2419;51.276;6.472;2023-04-07T12:56:34;11.30;99.90
4811;DHT22;2419;51.276;6.472;2023-04-07T12:59:02;11.20;99.90
4811;DHT22;2419;51.276;6.472;2023-04-07T13:01:30;11.10;99.90
4811;DHT22;2419;51.276;6.472;2023-04-07T13:04:02;11.00;99.90
4811;DHT22;2419;51.276;6.472;2023-04-07T13:06:30;11.10;99.90
4811;DHT22;2419;51.276;6.472;2023-04-07T13:08:59;11.10;99.90
4811;DHT22;2419;51.276;6.472;2023-04-07T13:11:27;11.00;99.90
4811;DHT22;2419;51.276;6.472;2023-04-07T13:13:55;11.10;99.90
4811;DHT22;2419;51.276;6.472;2023-04-07T13:16:26;11.20;99.90
4811;DHT22;2419;51.276;6.472;2023-04-07T13:18:54;11.20;99.90
4811;DHT22;2419;51.276;6.472;2023-04-07T13:21:24;11.10;99.90
4811;DHT22;2419;51.276;6.472;2023-04-07T13:24:12;11.10;99.90
4811;DHT22;2419;51.276;6.472;2023-04-07T13:26:40;11.20;99.90
4811;DHT22;2419;51.276;6.472;2023-04-07T13:29:08;11.20;99.90
4811;DHT22;2419;51.276;6.472;2023-04-07T13:31:36;11.20;99.90
4811;DHT22;2419;51.276;6.472;2023-04-07T13:34:04;11.10;99.90
4811;DHT22;2419;51.276;6.472;2023-04-07T13:36:33;10.90;99.90
4811;DHT22;2419;51.276;6.472;2023-04-07T13:39:01;10.80;99.90
4811;DHT22;2419;51.276;6.472;2023-04-07T13:41:29;10.70;99.90
4811;DHT22;2419;51.276;6.472;2023-04-07T13:43:57;10.60;99.90
4811;DHT22;2419;51.276;6.472;2023-04-07T13:46:26;10.50;99.90
4811;DHT22;2419;51.276;6.472;2023-04-07T13:48:55;10.50;99.90
4811;DHT22;2419;51.276;6.472;2023-04-07T13:51:23;10.40;99.90
4811;DHT22;2419;51.276;6.472;2023-04-07T13:53:52;10.30;99.90
4811;DHT22;2419;51.276;6.472;2023-04-07T13:56:20;10.30;99.90
4811;DHT22;2419;51.276;6.472;2023-04-07T13:58:49;10.20;99.90
4811;DHT22;2419;51.276;6.472;2023-04-07T14:01:17;10.30;99.90
4811;DHT22;2419;51.276;6.472;2023-04-07T14:03:46;10.40;99.90
4811;DHT22;2419;51.276;6.472;2023-04-07T14:06:15;10.50;99.90
4811;DHT22;2419;51.276;6.472;2023-04-07T14:08:43;10.50;99.90
4811;DHT22;2419;51.276;6.472;2023-04-07T14:11:15;10.60;99.90
4811;DHT22;2419;51.276;6.472;2023-04-07T14:13:44;10.60;99.90
4811;DHT22;2419;51.276;6.472;2023-04-07T14:16:12;10.80;99.90
4811;DHT22;2419;51.276;6.472;2023-04-07T14:18:40;10.90;99.90
4811;DHT22;2419;51.276;6.472;2023-04-07T14:21:08;11.10;99.90
4811;DHT22;2419;51.276;6.472;2023-04-07T14:23:36;11.30;99.90
4811;DHT22;2419;51.276;6.472;2023-04-07T14:26:08;11.40;99.90
4811;DHT22;2419;51.276;6.472;2023-04-07T14:45:49;11.50;99.90
4811;DHT22;2419;51.276;6.472;2023-04-07T14:48:17;11.40;99.90
4811;DHT22;2419;51.276;6.472;2023-04-07T14:50:45;11.40;99.90
4811;DHT22;2419;51.276;6.472;2023-04-07T14:53:22;11.40;99.90
4811;DHT22;2419;51.276;6.472;2023-04-07T14:55:50;11.50;99.90
4811;DHT22;2419;51.276;6.472;2023-04-07T14:58:18;11.40;99.90
4811;DHT22;2419;51.276;6.472;2023-04-07T15:00:46;11.30;99.90
4811;DHT22;2419;51.276;6.472;2023-04-07T15:03:15;11.40;99.90
4811;DHT22;2419;51.276;6.472;2023-04-07T15:05:43;11.50;99.90
4811;DHT22;2419;51.276;6.472;2023-04-07T15:08:12;11.60;99.90
4811;DHT22;2419;51.276;6.472;2023-04-07T15:10:39;11.60;99.90
4811;DHT22;2419;51.276;6.472;2023-04-07T15:13:07;11.70;99.90
4811;DHT22;2419;51.276;6.472;2023-04-07T15:15:35;11.60;99.90
4811;DHT22;2419;51.276;6.472;2023-04-07T15:18:03;11.80;99.90
4811;DHT22;2419;51.276;6.472;2023-04-07T15:20:33;11.80;99.90
4811;DHT22;2419;51.276;6.472;2023-04-07T15:23:01;11.70;99.90
4811;DHT22;2419;51.276;6.472;2023-04-07T15:25:29;11.80;99.90
4811;DHT22;2419;51.276;6.472;2023-04-07T15:27:57;11.70;99.90
4811;DHT22;2419;51.276;6.472;2023-04-07T15:30:25;11.70;99.90
4811;DHT22;2419;51.276;6.472;2023-04-07T15:32:56;11.60;99.90
4811;DHT22;2419;51.276;6.472;2023-04-07T15:35:26;11.50;99.90
4811;DHT22;2419;51.276;6.472;2023-04-07T15:37:55;11.50;99.90
4811;DHT22;2419;51.276;6.472;2023-04-07T15:40:23;11.50;99.90
4811;DHT22;2419;51.276;6.472;2023-04-07T15:42:51;11.30;99.90
4811;DHT22;2419;51.276;6.472;2023-04-07T15:45:19;11.10;99.90
4811;DHT22;2419;51.276;6.472;2023-04-07T15:47:47;11.00;99.90
4811;DHT22;2419;51.276;6.472;2023-04-07T15:50:16;11.00;99.90
4811;DHT22;2419;51.276;6.472;2023-04-07T15:52:44;10.80;99.90
4811;DHT22;2419;51.276;6.472;2023-04-07T15:55:13;10.70;99.90
4811;DHT22;2419;51.276;6.472;2023-04-07T15:57:41;10.80;99.90
4811;DHT22;2419;51.276;6.472;2023-04-07T16:00:09;10.80;99.90
4811;DHT22;2419;51.276;6.472;2023-04-07T16:02:37;10.80;99.90
4811;DHT22;2419;51.276;6.472;2023-04-07T16:05:06;10.80;99.90
4811;DHT22;2419;51.276;6.472;2023-04-07T16:07:34;10.70;99.90
4811;DHT22;2419;51.276;6.472;2023-04-07T16:10:03;10.70;99.90
4811;DHT22;2419;51.276;6.472;2023-04-07T16:12:35;10.70;99.90
4811;DHT22;2419;51.276;6.472;2023-04-07T16:22:35;10.60;99.90
4811;DHT22;2419;51.276;6.472;2023-04-07T16:25:04;10.60;99.90
4811;DHT22;2419;51.276;6.472;2023-04-07T16:27:32;10.60;99.90
4811;DHT22;2419;51.276;6.472;2023-04-07T16:30:02;10.50;99.90
4811;DHT22;2419;51.276;6.472;2023-04-07T16:32:30;10.60;99.90
4811;DHT22;2419;51.276;6.472;2023-04-07T16:34:59;10.60;99.90
4811;DHT22;2419;51.276;6.472;2023-04-07T16:37:27;10.50;99.90
4811;DHT22;2419;51.276;6.472;2023-04-07T16:39:56;10.50;99.90
4811;DHT22;2419;51.276;6.472;2023-04-07T16:42:24;10.50;99.90
4811;DHT22;2419;51.276;6.472;2023-04-07T16:44:54;10.40;99.90
4811;DHT22;2419;51.276;6.472;2023-04-07T16:47:24;10.40;99.90
4811;DHT22;2419;51.276;6.472;2023-04-07T16:49:53;10.30;99.90
4811;DHT22;2419;51.276;6.472;2023-04-07T16:52:21;10.30;99.90
4811;DHT22;2419;51.276;6.472;2023-04-07T16:54:49;10.30;99.90
4811;DHT22;2419;51.276;6.472;2023-04-07T16:57:17;10.30;99.90
4811;DHT22;2419;51.276;6.472;2023-04-07T16:59:45;10.30;99.90
4811;DHT22;2419;51.276;6.472;2023-04-07T17:02:14;10.20;99.90
4811;DHT22;2419;51.276;6.472;2023-04-07T17:04:44;10.20;99.90
4811;DHT22;2419;51.276;6.472;2023-04-07T17:07:12;10.20;99.90
4811;DHT22;2419;51.276;6.472;2023-04-07T17:09:40;10.00;99.90
4811;DHT22;2419;51.276;6.472;2023-04-07T17:12:08;10.00;99.90
4811;DHT22;2419;51.276;6.472;2023-04-07T17:14:36;9.90;99.90
4811;DHT22;2419;51.276;6.472;2023-04-07T17:17:04;9.80;99.90
4811;DHT22;2419;51.276;6.472;2023-04-07T17:19:32;9.80;99.90
4811;DHT22;2419;51.276;6.472;2023-04-07T17:22:02;9.80;99.90
4811;DHT22;2419;51.276;6.472;2023-04-07T17:24:30;9.70;99.90
4811;DHT22;2419;51.276;6.472;2023-04-07T17:26:58;9.70;99.90